Time;durP1;ratioP1;P1;durP2;ratioP2;P2;SDS_P1;SDS_P2;PMS_P1;PMS_P2;Temp;Humidity;BMP_temperature;BMP_pressure;BME280_temperature;BME280_humidity;BME280_pressure;Samples;Min_cycle;Max_cycle;Signal;HPM_P1;HPM_P2
2022/01/18 00:01:00;;;;;;;;;85.50;79.50;;;;;9.26;61.61;103267.06;2086894;28;46897;-60
2022/01/18 00:02:02;;;;;;;;;86.50;81.00;;;;;9.26;61.52;103272.38;2086715;28;47212;-60
2022/01/18 00:03:03;;;;;;;;;86.50;79.00;;;;;9.25;61.43;103278.53;2086352;28;46144;-60
2022/01/18 00:04:04;;;;;;;;;87.50;79.75;;;;;9.24;61.26;103279.41;2086519;28;47702;-60
2022/01/18 00:05:07;;;;;;;;;88.50;77.75;;;;;9.23;61.38;103282.91;2094075;28;48034;-59
2022/01/18 00:06:11;;;;;;;;;84.00;75.25;;;;;9.22;61.50;103273.16;2094433;28;47454;-60
2022/01/18 00:07:12;;;;;;;;;87.00;81.50;;;;;9.23;61.50;103266.13;2088095;28;47930;-61
2022/01/18 00:08:14;;;;;;;;;87.67;83.00;;;;;9.22;61.58;103272.28;2086983;28;47603;-59
2022/01/18 00:09:18;;;;;;;;;88.00;81.25;;;;;9.22;61.69;103269.63;2078723;28;47464;-60
2022/01/18 00:10:19;;;;;;;;;87.75;82.75;;;;;9.21;61.56;103270.47;2087234;28;48308;-61
2022/01/18 00:11:23;;;;;;;;;88.50;81.25;;;;;9.19;61.40;103261.59;2094765;28;48317;-61
2022/01/18 00:12:54;;;;;;;;;90.75;86.50;;;;;9.19;61.45;103264.25;2095645;28;46029;-61
2022/01/18 00:14:02;;;;;;;;;92.00;85.50;;;;;9.18;61.66;103281.00;2095950;28;47891;-60
2022/01/18 00:16:27;;;;;;;;;85.50;74.75;;;;;9.14;61.50;103282.66;2095408;28;45757;-60
2022/01/18 00:17:40;;;;;;;;;86.25;80.50;;;;;9.13;61.65;103273.81;2094209;28;47645;-62
2022/01/18 00:18:41;;;;;;;;;87.50;81.50;;;;;9.13;61.67;103260.56;2094131;28;47219;-60
2022/01/18 00:19:52;;;;;;;;;89.25;84.25;;;;;9.14;61.93;103253.53;2094998;28;46862;-60
2022/01/18 00:22:14;;;;;;;;;90.00;85.00;;;;;9.14;61.54;103272.97;2095052;28;47216;-61
2022/01/18 00:23:15;;;;;;;;;88.67;85.33;;;;;9.14;61.66;103285.31;2094653;28;46488;-60
2022/01/18 00:24:15;;;;;;;;;87.33;84.67;;;;;9.13;61.73;103287.06;2094705;28;47381;-60
2022/01/18 00:25:18;;;;;;;;;99.67;97.33;;;;;9.13;61.65;103280.88;2094990;28;46887;-61
2022/01/18 00:26:18;;;;;;;;;96.67;94.33;;;;;9.12;61.58;103276.44;2095930;28;48100;-61
2022/01/18 00:27:19;;;;;;;;;98.33;93.00;;;;;9.11;61.59;103266.69;2092962;28;48167;-61
2022/01/18 00:28:21;;;;;;;;;94.33;91.67;;;;;9.10;61.54;103262.25;2087824;28;48029;-62
2022/01/18 00:29:24;;;;;;;;;85.33;80.00;;;;;9.09;61.62;103266.66;2094428;28;47643;-61
2022/01/18 00:31:40;;;;;;;;;90.25;84.50;;;;;9.06;61.54;103276.31;2094624;28;47516;-60
2022/01/18 00:32:55;;;;;;;;;87.75;82.25;;;;;9.05;61.48;103285.09;2092605;28;47335;-60
2022/01/18 00:34:04;;;;;;;;;86.25;76.50;;;;;9.03;61.32;103285.06;2085222;28;47355;-60
2022/01/18 00:35:05;;;;;;;;;86.25;82.25;;;;;9.03;61.44;103282.41;2087258;28;47417;-60
2022/01/18 00:36:10;;;;;;;;;85.75;77.25;;;;;9.03;61.50;103265.63;2084220;28;48079;-61
2022/01/18 00:37:24;;;;;;;;;86.50;82.00;;;;;9.01;61.51;103259.38;2092707;28;47613;-60
2022/01/18 00:38:43;;;;;;;;;82.75;72.00;;;;;9.00;61.48;103255.84;2088934;28;47579;-61
2022/01/18 00:39:44;;;;;;;;;86.25;78.00;;;;;8.99;61.50;103264.63;2095895;28;47105;-60
2022/01/18 00:40:44;;;;;;;;;86.25;81.25;;;;;8.99;61.39;103274.34;2096154;28;47341;-60
2022/01/18 00:41:45;;;;;;;;;80.75;69.25;;;;;8.97;61.53;103281.34;2096207;28;47402;-59
2022/01/18 00:42:45;;;;;;;;;84.25;75.00;;;;;8.96;61.41;103277.81;2096318;28;47032;-60
2022/01/18 00:43:46;;;;;;;;;83.75;74.50;;;;;8.94;61.34;103274.22;2087135;28;47763;-60
2022/01/18 00:44:48;;;;;;;;;80.25;66.50;;;;;8.94;61.55;103260.09;2087142;28;47272;-59
2022/01/18 00:45:49;;;;;;;;;83.50;75.00;;;;;8.93;61.66;103253.91;2096423;28;45237;-60
2022/01/18 00:46:50;;;;;;;;;84.50;75.50;;;;;8.92;61.49;103246.81;2092191;28;47970;-60
2022/01/18 00:47:50;;;;;;;;;82.50;75.50;;;;;8.92;61.51;103259.16;2095816;28;46359;-61
2022/01/18 00:48:54;;;;;;;;;80.75;71.00;;;;;8.90;61.58;103260.88;2091629;28;47153;-60
2022/01/18 00:50:03;;;;;;;;;82.00;72.50;;;;;8.88;61.44;103263.47;2093359;28;47288;-60
2022/01/18 00:51:05;;;;;;;;;82.25;73.00;;;;;8.88;61.44;103265.22;2096165;28;47898;-60
2022/01/18 00:52:07;;;;;;;;;82.50;70.00;;;;;8.86;61.47;103267.81;2096144;28;47145;-60
2022/01/18 00:53:11;;;;;;;;;81.25;71.75;;;;;8.84;61.59;103270.44;2096018;28;47205;-61
2022/01/18 00:54:18;;;;;;;;;84.50;75.50;;;;;8.83;61.63;103258.06;2096108;28;47200;-60
2022/01/18 00:55:20;;;;;;;;;82.25;69.25;;;;;8.83;61.39;103258.06;2096089;28;47198;-61
2022/01/18 00:56:27;;;;;;;;;81.00;67.50;;;;;8.82;61.59;103255.38;2087076;28;47217;-60
2022/01/18 00:57:28;;;;;;;;;85.00;77.00;;;;;8.81;61.58;103251.84;2087496;28;47637;-60
2022/01/18 00:58:28;;;;;;;;;82.50;73.50;;;;;8.80;61.49;103250.03;2095740;28;47633;-60
2022/01/18 00:59:29;;;;;;;;;80.50;72.75;;;;;8.81;61.66;103254.47;2095908;28;47959;-62
2022/01/18 01:00:29;;;;;;;;;81.00;71.25;;;;;8.79;61.50;103258.84;2095955;28;46115;-60
2022/01/18 01:01:30;;;;;;;;;81.50;71.25;;;;;8.79;61.64;103261.50;2096071;28;47760;-60
2022/01/18 01:02:30;;;;;;;;;83.50;73.75;;;;;8.79;61.68;103261.50;2096208;28;47586;-61
2022/01/18 01:03:31;;;;;;;;;81.75;74.25;;;;;8.78;61.37;103267.66;2095724;28;47052;-61
2022/01/18 01:04:36;;;;;;;;;80.50;70.25;;;;;8.78;61.46;103262.34;2095889;28;47080;-60
2022/01/18 01:05:37;;;;;;;;;81.75;73.50;;;;;8.77;61.71;103257.00;2093991;28;47112;-61
2022/01/18 01:06:38;;;;;;;;;82.50;71.50;;;;;8.77;61.58;103251.72;2096319;28;45558;-60
2022/01/18 01:07:40;;;;;;;;;74.25;59.75;;;;;8.75;61.56;103249.00;2096027;28;45701;-60
2022/01/18 01:08:40;;;;;;;;;81.75;68.00;;;;;8.76;61.33;103252.53;2096003;28;47025;-61
2022/01/18 01:09:41;;;;;;;;;79.00;67.00;;;;;8.75;61.47;103250.75;2085531;28;47056;-59
2022/01/18 01:10:42;;;;;;;;;78.25;67.25;;;;;8.74;61.43;103257.81;2087075;28;46828;-60
2022/01/18 01:11:42;;;;;;;;;79.00;66.25;;;;;8.72;61.28;103254.22;2095962;28;47697;-60
2022/01/18 01:12:43;;;;;;;;;78.75;65.25;;;;;8.71;61.29;103259.47;2096145;28;47181;-60
2022/01/18 01:13:47;;;;;;;;;79.00;66.50;;;;;8.70;61.52;103255.06;2095742;28;47644;-61
2022/01/18 01:14:51;;;;;;;;;72.50;58.25;;;;;8.69;61.20;103255.91;2086692;28;46416;-59
2022/01/18 01:16:19;;;;;;;;;73.00;58.00;;;;;8.67;61.45;103254.97;2087542;28;47776;-59
2022/01/18 01:34:39;;;;;;;;;64.40;53.20;;;;;8.43;61.27;103252.56;2045558;28;47895;-60
2022/01/18 01:37:11;;;;;;;;;62.60;50.00;;;;;8.41;61.34;103263.09;2065547;28;47593;-59
2022/01/18 01:42:11;;;;;;;;;54.80;45.00;;;;;8.38;61.35;103257.69;2095717;28;47862;-59
2022/01/18 01:43:30;;;;;;;;;52.20;43.80;;;;;8.37;61.72;103247.97;2095836;28;47555;-60
2022/01/18 01:44:44;;;;;;;;;51.80;43.40;;;;;8.36;61.69;103256.75;2095400;28;48002;-60
2022/01/18 01:45:45;;;;;;;;;52.00;42.00;;;;;8.36;61.50;103259.41;2096037;28;47500;-60
2022/01/18 01:46:45;;;;;;;;;46.80;40.60;;;;;8.35;61.73;103265.56;2095744;28;47889;-61
2022/01/18 01:47:51;;;;;;;;;48.50;40.50;;;;;8.35;61.65;103262.00;2095859;28;47307;-59
2022/01/18 01:48:54;;;;;;;;;41.20;34.00;;;;;8.32;61.63;103257.50;2095895;28;46724;-60
2022/01/18 01:49:54;;;;;;;;;43.40;37.60;;;;;8.32;61.78;103265.44;2095955;28;47280;-61
2022/01/18 01:51:04;;;;;;;;;39.50;36.00;;;;;8.33;61.75;103255.75;2095808;28;47496;-61
2022/01/18 01:52:10;;;;;;;;;41.00;37.20;;;;;8.32;61.91;103259.25;2096013;28;47635;-59
2022/01/18 01:53:12;;;;;;;;;51.20;40.80;;;;;8.31;61.93;103255.72;2095576;28;47532;-61
2022/01/18 01:54:12;;;;;;;;;53.60;42.40;;;;;8.31;61.79;103257.47;2095844;28;47214;-61
2022/01/18 01:55:14;;;;;;;;;46.75;37.00;;;;;8.30;61.58;103259.22;2095714;28;47160;-59
2022/01/18 01:56:15;;;;;;;;;47.80;39.60;;;;;8.29;61.96;103261.81;2095876;28;47754;-61
2022/01/18 01:57:16;;;;;;;;;44.50;37.50;;;;;8.27;61.83;103261.78;2095887;28;47482;-60
2022/01/18 01:58:23;;;;;;;;;51.40;40.20;;;;;8.24;61.91;103257.28;2086956;28;47187;-61
2022/01/18 01:59:24;;;;;;;;;51.60;41.80;;;;;8.25;62.15;103256.41;2087366;28;46939;-60
2022/01/18 02:00:24;;;;;;;;;41.75;37.00;;;;;8.24;61.84;103256.38;2095820;28;47209;-60
2022/01/18 02:01:26;;;;;;;;;50.00;39.25;;;;;8.23;62.33;103249.31;2095635;28;47054;-61
2022/01/18 02:02:30;;;;;;;;;47.40;40.20;;;;;8.22;62.07;103261.63;2095605;28;46870;-61
2022/01/18 02:03:30;;;;;;;;;47.40;40.20;;;;;8.22;62.02;103263.38;2095677;28;45905;-61
2022/01/18 02:04:31;;;;;;;;;48.25;41.00;;;;;8.22;61.95;103260.75;2094699;28;45418;-60
2022/01/18 02:05:31;;;;;;;;;46.25;37.50;;;;;8.20;62.27;103252.75;2087363;28;47141;-61
2022/01/18 02:06:32;;;;;;;;;41.25;36.75;;;;;8.21;62.09;103257.19;2086346;28;47779;-60
2022/01/18 02:07:32;;;;;;;;;41.50;36.50;;;;;8.19;62.36;103261.56;2086921;28;47078;-61
2022/01/18 02:08:33;;;;;;;;;35.75;34.25;;;;;8.18;62.10;103262.41;2086887;28;47025;-61
2022/01/18 02:09:34;;;;;;;;;40.75;37.00;;;;;8.17;62.28;103271.19;2088014;28;47069;-60
2022/01/18 02:10:39;;;;;;;;;46.75;40.50;;;;;8.18;62.29;103267.69;2088433;28;47163;-60
2022/01/18 02:11:39;;;;;;;;;50.00;39.40;;;;;8.16;62.27;103263.22;2086988;28;47332;-60
2022/01/18 02:12:40;;;;;;;;;46.00;37.75;;;;;8.16;62.14;103264.13;2087760;28;46513;-61
2022/01/18 02:13:40;;;;;;;;;49.25;37.00;;;;;8.16;62.10;103260.56;2087552;28;47027;-62
2022/01/18 02:14:45;;;;;;;;;46.50;39.75;;;;;8.16;62.21;103252.66;2088000;28;47173;-62
2022/01/18 02:22:18;;;;;;;;;38.40;36.00;;;;;8.07;62.17;103258.56;2096102;28;47347;-59
2022/01/18 02:23:19;;;;;;;;;42.75;34.25;;;;;8.06;62.30;103255.88;2096623;28;47608;-60
2022/01/18 02:24:21;;;;;;;;;42.75;37.75;;;;;8.06;62.34;103253.22;2096158;28;46846;-60
2022/01/18 02:25:23;;;;;;;;;37.40;34.20;;;;;8.06;62.38;103258.50;2096918;28;47479;-60
2022/01/18 02:26:26;;;;;;;;;38.60;34.80;;;;;8.05;62.46;103262.00;2095898;28;47230;-61
2022/01/18 02:27:28;;;;;;;;;43.60;36.20;;;;;8.04;62.34;103262.88;2095721;28;47729;-61
2022/01/18 02:28:29;;;;;;;;;34.00;31.60;;;;;8.02;62.41;103254.88;2095951;28;48167;-60
2022/01/18 02:29:29;;;;;;;;;35.75;33.25;;;;;8.02;62.37;103257.53;2095679;28;45415;-62
2022/01/18 02:30:29;;;;;;;;;33.75;29.50;;;;;8.01;62.32;103257.50;2095713;28;47421;-59
2022/01/18 02:31:30;;;;;;;;;33.25;31.25;;;;;8.02;62.35;103254.00;2095748;28;46997;-60
2022/01/18 02:32:31;;;;;;;;;35.00;31.60;;;;;8.00;62.01;103253.03;2095805;28;47410;-60
2022/01/18 02:33:31;;;;;;;;;30.25;28.50;;;;;8.01;62.38;103254.84;2096400;28;47418;-61
2022/01/18 02:34:32;;;;;;;;;27.00;26.25;;;;;7.98;62.41;103263.56;2104912;28;46310;-61
2022/01/18 02:35:34;;;;;;;;;31.75;29.00;;;;;7.98;62.41;103268.84;2095578;28;47802;-59
2022/01/18 02:36:35;;;;;;;;;26.60;25.00;;;;;7.97;62.27;103261.78;2088186;28;47083;-61
2022/01/18 02:37:35;;;;;;;;;24.50;23.00;;;;;7.97;62.26;103267.06;2088115;28;47327;-60
2022/01/18 02:38:36;;;;;;;;;24.25;19.75;;;;;7.95;62.22;103259.09;2091166;28;47501;-60
2022/01/18 02:39:36;;;;;;;;;27.75;24.75;;;;;7.95;62.47;103252.91;2095658;28;46995;-60
2022/01/18 02:40:37;;;;;;;;;26.75;23.00;;;;;7.94;62.45;103261.69;2095529;28;47197;-60
2022/01/18 02:41:38;;;;;;;;;25.75;24.75;;;;;7.92;62.33;103253.72;2095749;28;47108;-60
2022/01/18 02:42:44;;;;;;;;;27.60;24.60;;;;;7.91;62.47;103253.66;2095764;28;47582;-61
2022/01/18 02:43:50;;;;;;;;;19.40;19.00;;;;;7.91;62.19;103261.59;2095923;28;47668;-61
2022/01/18 02:44:51;;;;;;;;;29.80;26.00;;;;;7.90;62.53;103250.13;2095496;28;47565;-60
2022/01/18 02:45:53;;;;;;;;;23.40;21.60;;;;;7.89;62.52;103250.97;2095977;28;47378;-60
2022/01/18 02:46:53;;;;;;;;;25.60;24.80;;;;;7.88;62.68;103251.84;2095353;28;46957;-61
2022/01/18 02:47:55;;;;;;;;;27.25;23.00;;;;;7.89;62.75;103260.66;2096222;28;47191;-61
2022/01/18 02:48:57;;;;;;;;;22.80;21.80;;;;;7.90;62.71;103257.16;2096258;28;46908;-61
2022/01/18 02:49:57;;;;;;;;;25.60;24.20;;;;;7.89;62.71;103252.72;2094278;28;47944;-60
2022/01/18 02:50:58;;;;;;;;;24.00;20.75;;;;;7.90;62.50;103249.22;2093736;28;46859;-61
2022/01/18 02:52:00;;;;;;;;;23.50;20.75;;;;;7.89;62.77;103248.34;2094163;28;48218;-60
2022/01/18 02:53:00;;;;;;;;;28.20;23.60;;;;;7.89;62.95;103248.34;2095511;28;46204;-59
2022/01/18 02:54:05;;;;;;;;;24.75;17.00;;;;;7.89;62.84;103252.72;2086496;28;47216;-61
2022/01/18 02:55:05;;;;;;;;;19.00;17.80;;;;;7.89;62.79;103258.03;2086663;28;47644;-61
2022/01/18 02:56:06;;;;;;;;;27.00;22.50;;;;;7.90;62.63;103260.72;2095451;28;47396;-61
2022/01/18 02:57:11;;;;;;;;;25.75;24.50;;;;;7.89;62.73;103250.97;2095467;28;47450;-60
2022/01/18 02:58:12;;;;;;;;;25.20;24.40;;;;;7.89;62.89;103248.34;2095538;28;47408;-60
2022/01/18 02:59:30;;;;;;;;;26.25;24.00;;;;;7.89;62.71;103237.75;2095048;28;47438;-60
2022/01/18 03:00:43;;;;;;;;;30.80;25.00;;;;;7.89;62.88;103237.75;2096007;28;47329;-60
2022/01/18 03:03:17;;;;;;;;;25.80;23.80;;;;;7.89;62.93;103235.13;2096202;28;45403;-60
2022/01/18 03:04:17;;;;;;;;;26.00;24.40;;;;;7.90;62.84;103228.97;2095656;28;47200;-60
2022/01/18 03:05:18;;;;;;;;;28.00;26.50;;;;;7.91;62.76;103227.22;2086436;28;47679;-60
2022/01/18 03:06:18;;;;;;;;;31.75;28.00;;;;;7.90;62.87;103226.34;2086151;28;47113;-60
2022/01/18 03:07:19;;;;;;;;;30.75;28.00;;;;;7.90;62.85;103218.41;2095589;28;47123;-60
2022/01/18 03:08:19;;;;;;;;;26.00;23.25;;;;;7.90;62.87;103217.50;2095538;28;46866;-59
2022/01/18 03:09:20;;;;;;;;;29.25;27.00;;;;;7.91;62.81;103227.22;2095197;28;47444;-60
2022/01/18 03:10:20;;;;;;;;;25.00;22.75;;;;;7.90;62.70;103221.03;2095334;28;46929;-60
2022/01/18 03:11:21;;;;;;;;;22.25;19.50;;;;;7.89;62.79;103219.25;2095223;28;47003;-60
2022/01/18 03:12:21;;;;;;;;;24.25;21.50;;;;;7.90;62.85;103215.75;2095684;28;46964;-60
2022/01/18 03:13:22;;;;;;;;;26.25;22.25;;;;;7.88;63.37;103214.81;2096020;28;47390;-59
2022/01/18 03:14:22;;;;;;;;;24.25;23.00;;;;;7.89;62.64;103221.00;2095107;28;46811;-60
2022/01/18 03:15:23;;;;;;;;;26.75;24.00;;;;;7.88;62.75;103208.66;2095550;28;47087;-60
2022/01/18 03:16:23;;;;;;;;;26.25;24.50;;;;;7.88;62.81;103217.47;2095115;28;47278;-61
2022/01/18 03:17:24;;;;;;;;;24.50;21.00;;;;;7.88;62.89;103213.94;2095649;28;47583;-59
2022/01/18 03:18:24;;;;;;;;;27.00;23.50;;;;;7.87;62.74;103207.72;2095271;28;45139;-60
2022/01/18 03:19:25;;;;;;;;;23.75;22.75;;;;;7.88;63.03;103200.72;2095264;28;48171;-60
2022/01/18 03:20:27;;;;;;;;;29.40;26.40;;;;;7.87;62.71;103194.50;2095281;28;48213;-61
2022/01/18 03:21:28;;;;;;;;;30.20;24.00;;;;;7.87;63.00;103202.44;2095782;28;47481;-60
2022/01/18 03:22:28;;;;;;;;;26.75;25.75;;;;;7.88;62.97;103195.44;2095732;28;46279;-60
2022/01/18 03:23:28;;;;;;;;;25.25;21.75;;;;;7.86;63.03;103192.72;2096639;28;46555;-61
2022/01/18 03:28:03;;;;;;;;;25.75;25.25;;;;;7.86;62.96;103210.31;2096285;28;47198;-60
2022/01/18 03:28:07;;;;;;;;;20.80;18.60;;;;;7.85;62.88;103200.59;2096230;28;47556;-60
2022/01/18 03:29:07;;;;;;;;;27.40;23.40;;;;;7.85;62.89;103204.13;2095378;28;46418;-60
2022/01/18 03:30:10;;;;;;;;;22.75;22.25;;;;;7.85;62.89;103198.84;2095160;28;47712;-60
2022/01/18 03:31:10;;;;;;;;;24.60;21.40;;;;;7.85;62.72;103201.50;2095135;28;47813;-59
2022/01/18 03:32:11;;;;;;;;;25.25;22.25;;;;;7.85;62.92;103201.50;2095005;28;47405;-61
2022/01/18 03:33:13;;;;;;;;;24.25;21.75;;;;;7.84;62.87;103209.38;2096143;28;46399;-60
2022/01/18 03:34:13;;;;;;;;;26.00;25.00;;;;;7.85;62.82;103203.25;2095625;28;46923;-60
2022/01/18 03:35:14;;;;;;;;;23.50;21.75;;;;;7.83;62.87;103205.84;2095872;28;47557;-60
2022/01/18 03:36:14;;;;;;;;;23.25;22.00;;;;;7.84;62.86;103209.38;2096102;28;47593;-59
2022/01/18 03:37:15;;;;;;;;;21.50;20.00;;;;;7.83;62.90;103200.56;2087073;28;47777;-59
2022/01/18 03:38:17;;;;;;;;;30.25;24.00;;;;;7.83;63.09;103205.84;2087075;28;47556;-59
2022/01/18 03:39:19;;;;;;;;;28.40;26.80;;;;;7.84;63.15;103198.81;2095088;28;48849;-59
2022/01/18 03:40:20;;;;;;;;;23.80;22.00;;;;;7.83;63.03;103197.91;2095346;28;47998;-59
2022/01/18 03:41:21;;;;;;;;;27.40;24.40;;;;;7.84;62.96;103204.09;2095270;28;47595;-60
2022/01/18 03:42:41;;;;;;;;;27.00;26.25;;;;;7.83;62.98;103200.56;2095357;28;47155;-61
2022/01/18 03:43:42;;;;;;;;;25.20;22.60;;;;;7.83;63.26;103202.31;2095029;28;47202;-60
2022/01/18 03:44:44;;;;;;;;;26.20;24.00;;;;;7.83;63.25;103205.84;2094831;28;47814;-60
2022/01/18 03:45:46;;;;;;;;;24.80;20.60;;;;;7.83;62.98;103208.50;2095121;28;48462;-60
2022/01/18 03:46:46;;;;;;;;;20.60;18.20;;;;;7.84;63.07;103204.09;2085959;28;47340;-61
2022/01/18 03:47:47;;;;;;;;;20.75;20.50;;;;;7.83;63.18;103197.00;2086507;28;47693;-61
2022/01/18 03:48:50;;;;;;;;;21.00;19.50;;;;;7.82;63.02;103193.47;2095487;28;47596;-62
2022/01/18 03:49:51;;;;;;;;;23.40;20.60;;;;;7.82;62.88;103201.41;2095211;28;46415;-61
2022/01/18 03:50:52;;;;;;;;;29.50;27.75;;;;;7.82;63.17;103197.88;2094983;28;47157;-60
2022/01/18 03:51:56;;;;;;;;;27.40;26.80;;;;;7.81;63.19;103204.00;2095642;28;45439;-61
2022/01/18 03:52:56;;;;;;;;;26.00;25.00;;;;;7.82;63.15;103197.88;2096204;28;47101;-59
2022/01/18 03:53:57;;;;;;;;;31.25;26.50;;;;;7.82;63.09;103197.88;2088270;28;47125;-59
2022/01/18 03:54:58;;;;;;;;;27.50;24.00;;;;;7.82;63.09;103196.13;2086881;28;46311;-59
2022/01/18 03:55:59;;;;;;;;;23.00;22.50;;;;;7.82;62.66;103201.41;2086804;28;47379;-61
2022/01/18 03:56:59;;;;;;;;;23.00;23.00;;;;;7.80;63.01;103200.47;2086953;28;47183;-60
2022/01/18 03:57:59;;;;;;;;;30.25;23.25;;;;;7.81;63.15;103199.63;2086275;28;47097;-60
2022/01/18 03:59:00;;;;;;;;;26.50;21.25;;;;;7.81;63.03;103204.00;2087141;28;48184;-60
2022/01/18 04:00:01;;;;;;;;;24.00;22.25;;;;;7.81;63.03;103204.00;2087480;28;45205;-60
2022/01/18 04:01:03;;;;;;;;;27.25;21.00;;;;;7.81;63.21;103196.97;2087893;28;47171;-60
2022/01/18 04:02:04;;;;;;;;;27.00;22.60;;;;;7.82;63.24;103192.59;2087312;28;47017;-60
2022/01/18 04:03:05;;;;;;;;;27.20;22.80;;;;;7.82;63.07;103197.88;2087268;28;47191;-60
2022/01/18 04:04:05;;;;;;;;;22.00;21.50;;;;;7.81;62.92;103196.97;2087615;28;47337;-60
2022/01/18 04:05:06;;;;;;;;;27.00;23.25;;;;;7.81;63.16;103202.25;2087762;28;47639;-60
2022/01/18 04:06:07;;;;;;;;;29.80;27.20;;;;;7.81;63.25;103199.63;2087178;28;47726;-60
2022/01/18 04:07:08;;;;;;;;;23.50;22.75;;;;;7.80;63.07;103202.22;2086812;28;47470;-60
2022/01/18 04:08:08;;;;;;;;;23.00;22.00;;;;;7.81;62.96;103198.72;2086865;28;46811;-60
2022/01/18 04:09:09;;;;;;;;;26.50;21.50;;;;;7.80;63.14;103199.59;2087193;28;47421;-60
2022/01/18 04:10:10;;;;;;;;;20.00;19.00;;;;;7.79;63.19;103198.69;2086652;28;47070;-60
2022/01/18 04:11:11;;;;;;;;;27.20;22.60;;;;;7.78;63.17;103194.25;2086640;28;47805;-60
2022/01/18 04:12:11;;;;;;;;;24.75;22.75;;;;;7.77;63.09;103200.41;2086622;28;47304;-60
2022/01/18 04:13:11;;;;;;;;;25.00;22.50;;;;;7.77;63.34;103196.84;2086737;28;47378;-60
2022/01/18 04:14:12;;;;;;;;;24.50;23.25;;;;;7.76;63.16;103203.88;2086169;28;47857;-61
2022/01/18 04:15:16;;;;;;;;;30.25;28.00;;;;;7.76;63.21;103201.25;2087432;28;47883;-61
2022/01/18 04:16:17;;;;;;;;;26.00;20.80;;;;;7.74;63.14;103205.56;2087650;28;46872;-61
2022/01/18 04:18:45;;;;;;;;;27.20;21.80;;;;;7.74;63.30;103195.00;2095483;28;47417;-60
2022/01/18 04:26:52;;;;;;;;;32.40;29.60;;;;;7.71;63.36;103194.00;2095674;28;47546;-60
2022/01/18 04:27:24;;;;;;;;;32.40;27.40;;;;;7.70;63.64;103193.13;2091984;28;47265;-60
2022/01/18 04:28:40;;;;;;;;;31.25;28.75;;;;;7.71;63.60;103194.91;2086652;28;47332;-60
2022/01/18 04:29:40;;;;;;;;;33.40;29.00;;;;;7.70;63.49;103192.22;2087528;28;47228;-61
2022/01/18 04:30:40;;;;;;;;;33.00;31.75;;;;;7.70;63.65;103194.88;2087404;28;47206;-60
2022/01/18 04:31:41;;;;;;;;;33.25;27.75;;;;;7.71;63.60;103197.56;2085891;28;47603;-60
2022/01/18 04:32:41;;;;;;;;;31.00;29.25;;;;;7.70;63.55;103197.50;2093843;28;47337;-61
2022/01/18 04:33:42;;;;;;;;;24.75;24.75;;;;;7.71;63.68;103205.47;2094606;28;47450;-60
2022/01/18 04:34:42;;;;;;;;;29.75;29.00;;;;;7.71;63.48;103194.00;2094821;28;47153;-61
2022/01/18 04:35:43;;;;;;;;;25.75;25.00;;;;;7.71;63.54;103202.84;2094905;28;47204;-60
2022/01/18 04:36:45;;;;;;;;;27.75;25.50;;;;;7.72;63.66;103199.34;2093899;28;47135;-61
2022/01/18 04:37:46;;;;;;;;;28.40;24.80;;;;;7.72;63.54;103204.63;2091616;28;47209;-60
2022/01/18 04:38:46;;;;;;;;;24.75;24.75;;;;;7.73;63.61;103197.59;2090799;28;46921;-59
2022/01/18 04:39:48;;;;;;;;;29.75;24.00;;;;;7.73;63.61;103210.81;2095184;28;47505;-61
2022/01/18 04:40:49;;;;;;;;;28.20;25.80;;;;;7.73;63.61;103202.88;2095197;28;47931;-60
2022/01/18 04:41:49;;;;;;;;;30.50;24.50;;;;;7.73;63.48;103206.41;2095327;28;47720;-60
2022/01/18 04:48:58;;;;;;;;;34.00;29.60;;;;;7.70;63.84;103194.88;2089296;28;47636;-60
2022/01/18 04:49:59;;;;;;;;;22.60;22.60;;;;;7.70;63.67;103189.56;2090358;28;46909;-59
2022/01/18 04:51:07;;;;;;;;;32.75;24.00;;;;;7.70;63.80;103193.13;2093822;28;47494;-60
2022/01/18 04:52:10;;;;;;;;;28.20;18.80;;;;;7.69;63.70;103193.97;2092164;28;45568;-59
2022/01/18 04:53:11;;;;;;;;;27.40;26.40;;;;;7.68;63.65;103195.72;2092543;28;47334;-61
2022/01/18 04:54:12;;;;;;;;;33.75;25.50;;;;;7.68;63.63;103184.25;2096252;28;47317;-60
2022/01/18 04:55:13;;;;;;;;;33.40;28.20;;;;;7.66;63.75;103188.59;2089428;28;47306;-59
2022/01/18 04:56:16;;;;;;;;;31.50;27.50;;;;;7.67;63.59;103193.03;2086364;28;47025;-60
2022/01/18 04:58:17;;;;;;;;;28.25;25.25;;;;;7.66;63.74;103197.44;2087784;28;47780;-59
2022/01/18 04:59:18;;;;;;;;;28.00;23.75;;;;;7.67;63.70;103193.03;2087618;28;47497;-60
2022/01/18 05:00:20;;;;;;;;;29.20;26.00;;;;;7.66;63.75;103189.50;2087546;28;47436;-61
2022/01/18 05:01:21;;;;;;;;;27.20;25.80;;;;;7.66;63.73;103189.50;2087865;28;47543;-59
2022/01/18 05:02:21;;;;;;;;;34.00;24.25;;;;;7.67;63.81;103191.28;2087617;28;47511;-60
2022/01/18 05:03:22;;;;;;;;;29.25;26.75;;;;;7.67;63.82;103196.56;2087651;28;47009;-60
2022/01/18 05:04:22;;;;;;;;;36.50;30.00;;;;;7.66;63.75;103197.44;2087704;28;47384;-60
2022/01/18 05:05:31;;;;;;;;;27.00;24.00;;;;;7.66;63.89;103202.72;2087741;28;47707;-60
2022/01/18 05:06:33;;;;;;;;;18.80;17.20;;;;;7.67;63.75;103200.97;2087695;28;47772;-60
2022/01/18 05:07:33;;;;;;;;;32.20;30.00;;;;;7.66;63.70;103196.53;2089906;28;47209;-60
2022/01/18 05:08:36;;;;;;;;;31.00;27.25;;;;;7.66;63.56;103197.44;2095957;28;47232;-60
2022/01/18 05:09:37;;;;;;;;;27.60;25.00;;;;;7.65;63.70;103200.91;2096082;28;47270;-59
2022/01/18 05:10:37;;;;;;;;;26.60;21.80;;;;;7.66;63.84;103202.72;2095175;28;47676;-59
2022/01/18 05:11:53;;;;;;;;;30.50;26.00;;;;;7.66;63.85;103191.25;2087975;28;47702;-60
2022/01/18 05:12:56;;;;;;;;;35.80;28.80;;;;;7.65;63.90;103195.63;2087455;28;47756;-60
2022/01/18 05:15:06;;;;;;;;;30.20;26.00;;;;;7.66;64.04;103197.44;2087258;28;47244;-58
2022/01/18 05:17:38;;;;;;;;;28.80;26.00;;;;;7.65;63.87;103193.00;2091582;28;47346;-60
2022/01/18 05:21:31;;;;;;;;;28.40;24.60;;;;;7.62;63.98;103200.84;2077385;28;47640;-60
2022/01/18 05:23:50;;;;;;;;;22.00;19.40;;;;;7.61;63.98;103196.38;2093723;28;46861;-60
2022/01/18 05:24:50;;;;;;;;;25.00;23.50;;;;;7.61;63.72;103204.28;2095577;28;45614;-60
2022/01/18 05:25:51;;;;;;;;;19.75;17.50;;;;;7.61;63.75;103200.75;2094854;28;47270;-60
2022/01/18 05:27:01;;;;;;;;;22.40;19.60;;;;;7.60;63.81;103198.97;2094430;28;47086;-61
2022/01/18 05:28:04;;;;;;;;;26.20;21.00;;;;;7.58;63.65;103193.66;2094866;28;47767;-60
2022/01/18 05:29:04;;;;;;;;;22.80;20.40;;;;;7.58;63.79;103190.09;2094701;28;47718;-60
2022/01/18 05:30:05;;;;;;;;;20.00;18.50;;;;;7.58;63.74;103200.69;2095402;28;47064;-60
2022/01/18 05:31:06;;;;;;;;;23.80;20.80;;;;;7.58;63.56;103192.75;2086963;28;47862;-61
2022/01/18 05:32:07;;;;;;;;;22.25;19.00;;;;;7.57;63.55;103194.50;2085904;28;48017;-60
2022/01/18 05:33:09;;;;;;;;;23.75;23.75;;;;;7.57;63.58;103194.50;2094649;28;47410;-59
2022/01/18 05:34:11;;;;;;;;;20.40;20.00;;;;;7.57;63.65;103190.97;2095120;28;47692;-59
2022/01/18 05:35:11;;;;;;;;;22.60;18.80;;;;;7.57;63.64;103193.59;2094845;28;47323;-61
2022/01/18 05:36:11;;;;;;;;;23.00;21.25;;;;;7.57;63.69;103190.97;2095378;28;47797;-60
2022/01/18 05:37:12;;;;;;;;;25.50;22.25;;;;;7.55;63.69;103188.28;2095523;28;47479;-60
2022/01/18 05:38:12;;;;;;;;;17.00;14.25;;;;;7.55;63.45;103188.28;2094508;28;47760;-59
2022/01/18 05:39:13;;;;;;;;;22.00;20.25;;;;;7.55;63.51;103188.28;2094821;28;47814;-60
2022/01/18 05:40:15;;;;;;;;;18.50;18.00;;;;;7.53;63.50;103184.69;2095389;28;47448;-60
2022/01/18 05:41:17;;;;;;;;;17.80;17.80;;;;;7.52;63.28;103182.00;2095765;28;47208;-60
2022/01/18 05:42:17;;;;;;;;;20.80;20.20;;;;;7.50;63.48;103184.63;2095554;28;47202;-60
2022/01/18 05:43:18;;;;;;;;;24.50;24.50;;;;;7.50;63.71;103181.06;2096072;28;48004;-60
2022/01/18 05:44:19;;;;;;;;;22.25;22.25;;;;;7.49;63.59;103182.78;2094308;28;47342;-61
2022/01/18 05:45:19;;;;;;;;;18.50;18.00;;;;;7.49;63.45;103188.06;2094763;28;47278;-59
2022/01/18 05:46:20;;;;;;;;;20.00;18.00;;;;;7.48;63.66;103178.34;2094547;28;47205;-59